Time;durP1;ratioP1;P1;durP2;ratioP2;P2;SDS_P1;SDS_P2;PMS_P1;PMS_P2;Temp;Humidity;BMP_temperature;BMP_pressure;BME280_temperature;BME280_humidity;BME280_pressure;Samples;Min_cycle;Max_cycle;Signal;HPM_P1;HPM_P2
2022/12/07 00:01:24;;;;;;;1.25;0.50;;;;;;;-2.06;68.24;100966.44;5104636;27;20040;-77
2022/12/07 00:03:54;;;;;;;2.15;0.50;;;;;;;-2.08;68.33;100963.84;5103274;27;20044;-77
2022/12/07 00:06:21;;;;;;;7.30;0.80;;;;;;;-2.08;68.50;100963.84;5104241;28;20094;-77
2022/12/07 00:08:49;;;;;;;2.08;1.23;;;;;;;-2.09;68.34;100969.75;5100268;28;20504;-77
2022/12/07 00:11:17;;;;;;;3.15;0.40;;;;;;;-2.10;68.40;100964.59;5104269;28;20453;-77
2022/12/07 00:13:44;;;;;;;2.00;0.52;;;;;;;-2.12;68.14;100959.41;5107835;28;20127;-76
2022/12/07 00:16:13;;;;;;;1.33;0.60;;;;;;;-2.15;68.03;100943.94;5104901;27;20044;-76
2022/12/07 00:18:41;;;;;;;2.10;0.50;;;;;;;-2.16;68.40;100949.88;5100410;28;20051;-77
2022/12/07 00:21:11;;;;;;;4.65;0.77;;;;;;;-2.28;68.36;100934.06;5101644;27;20601;-77
2022/12/07 00:23:38;;;;;;;4.97;0.47;;;;;;;-2.20;68.36;100950.56;5105376;28;20055;-77
2022/12/07 00:26:07;;;;;;;1.15;0.38;;;;;;;-2.24;68.24;100946.19;5105624;28;20043;-76
2022/12/07 00:28:34;;;;;;;3.10;0.30;;;;;;;-2.23;68.31;100953.03;5104809;28;20043;-76
2022/12/07 00:31:03;;;;;;;0.70;0.40;;;;;;;-2.25;68.35;100944.41;5107559;28;20710;-76
2022/12/07 00:33:30;;;;;;;3.90;0.40;;;;;;;-2.30;68.28;100938.28;5104473;27;20047;-77
2022/12/07 00:35:59;;;;;;;6.18;0.60;;;;;;;-2.30;68.45;100941.72;5108587;27;20047;-76
2022/12/07 00:38:28;;;;;;;3.10;0.40;;;;;;;-2.31;68.35;100946.75;5103144;28;20050;-76
2022/12/07 00:40:57;;;;;;;2.20;0.45;;;;;;;-2.33;68.22;100940.72;5101321;28;20445;-76
2022/12/07 00:43:24;;;;;;;1.65;0.43;;;;;;;-2.35;68.29;100937.25;5106890;28;20116;-77
2022/12/07 00:45:51;;;;;;;8.27;0.50;;;;;;;-2.36;68.47;100933.81;5107512;28;20117;-77
2022/12/07 00:48:17;;;;;;;2.22;0.47;;;;;;;-2.38;68.35;100935.44;5102076;27;20102;-76
2022/12/07 00:50:44;;;;;;;0.98;0.40;;;;;;;-2.41;68.79;100934.47;5101075;28;20109;-77
2022/12/07 00:53:13;;;;;;;2.10;1.55;;;;;;;-2.45;68.22;100924.91;5107375;27;20100;-76
2022/12/07 00:55:39;;;;;;;1.63;0.57;;;;;;;-2.43;68.33;100933.53;5101586;28;20047;-77
2022/12/07 00:58:06;;;;;;;1.67;0.40;;;;;;;-2.44;68.36;100939.47;5102954;28;20102;-76
2022/12/07 01:00:34;;;;;;;5.10;0.50;;;;;;;-2.46;68.32;100935.97;5097838;28;20052;-77
2022/12/07 01:03:01;;;;;;;4.50;0.50;;;;;;;-2.47;68.25;100939.34;5104454;28;20044;-77
2022/12/07 01:05:28;;;;;;;4.70;0.40;;;;;;;-2.50;68.52;100935.00;5102824;28;20035;-77
2022/12/07 01:07:54;;;;;;;6.13;0.38;;;;;;;-2.52;68.47;100931.50;5094060;27;20044;-77
2022/12/07 01:10:23;;;;;;;2.08;0.35;;;;;;;-2.56;68.50;100933.09;5098049;28;20043;-76
2022/12/07 01:12:49;;;;;;;1.38;0.40;;;;;;;-2.54;68.40;100938.25;5102406;28;20048;-76
2022/12/07 01:15:16;;;;;;;2.28;0.35;;;;;;;-2.59;68.24;100935.53;5099854;28;20044;-76
2022/12/07 01:17:43;;;;;;;2.08;0.30;;;;;;;-2.56;68.60;100934.75;5100161;28;20388;-76
2022/12/07 01:20:11;;;;;;;1.52;0.38;;;;;;;-2.58;68.35;100927.03;5104542;28;20048;-76
2022/12/07 01:22:38;;;;;;;2.80;0.40;;;;;;;-2.59;68.53;100930.41;5094991;28;20504;-76
2022/12/07 01:25:05;;;;;;;4.18;0.40;;;;;;;-2.58;68.67;100929.59;5103640;27;20078;-77
2022/12/07 01:27:35;;;;;;;2.53;0.38;;;;;;;-2.60;68.58;100933.78;5111067;28;20051;-76
2022/12/07 01:30:03;;;;;;;1.38;0.30;;;;;;;-2.65;68.45;100927.59;5100331;27;20445;-76
2022/12/07 01:32:30;;;;;;;1.65;0.65;;;;;;;-2.63;68.61;100933.66;5107123;28;20521;-77
2022/12/07 01:34:57;;;;;;;3.38;0.40;;;;;;;-2.66;68.75;100931.00;5102841;27;20073;-77
2022/12/07 01:37:24;;;;;;;1.65;0.40;;;;;;;-2.64;68.58;100931.94;5097772;28;20077;-76
2022/12/07 01:39:51;;;;;;;1.63;0.40;;;;;;;-2.68;68.68;100929.19;5100531;27;20537;-77
2022/12/07 01:42:18;;;;;;;2.90;0.40;;;;;;;-2.75;68.34;100917.88;5103237;28;20069;-77
2022/12/07 01:45:29;;;;;;;1.42;0.50;;;;;;;-2.65;68.72;100945.50;5099776;28;20096;-77
2022/12/07 01:47:58;;;;;;;2.83;0.50;;;;;;;-2.65;68.75;100934.41;5042336;28;20116;-77
2022/12/07 01:50:31;;;;;;;4.55;0.47;;;;;;;-2.66;68.74;100933.53;5099298;28;20090;-76
2022/12/07 01:53:01;;;;;;;3.92;0.50;;;;;;;-2.67;68.56;100934.38;5106984;28;20048;-77
2022/12/07 01:55:28;;;;;;;1.83;0.50;;;;;;;-2.68;68.79;100924.94;5103875;28;20047;-77
2022/12/07 01:57:56;;;;;;;3.03;0.40;;;;;;;-2.69;68.54;100923.19;5100807;28;20652;-77
2022/12/07 02:00:23;;;;;;;1.92;0.30;;;;;;;-2.70;68.80;100918.91;5102207;28;20051;-77
2022/12/07 02:02:55;;;;;;;1.40;0.30;;;;;;;-2.68;68.90;100914.72;5100462;28;20105;-76
2022/12/07 02:05:25;;;;;;;2.65;0.40;;;;;;;-2.69;68.80;100920.66;5102444;28;20051;-76
2022/12/07 02:07:54;;;;;;;5.35;1.15;;;;;;;-2.69;68.73;100923.19;5102505;28;20044;-76
2022/12/07 02:10:24;;;;;;;1.15;0.30;;;;;;;-2.74;68.78;100917.03;5096995;28;20044;-77
2022/12/07 02:12:55;;;;;;;1.52;0.30;;;;;;;-2.69;68.97;100927.44;5099397;28;20051;-77
2022/12/07 02:15:26;;;;;;;1.52;0.20;;;;;;;-2.69;68.84;100923.19;5100916;27;20448;-76
2022/12/07 02:18:02;;;;;;;4.47;0.40;;;;;;;-2.74;69.07;100905.13;5101844;27;20101;-77
2022/12/07 02:20:34;;;;;;;3.58;0.30;;;;;;;-2.68;69.04;100908.72;5099099;28;20047;-77
2022/12/07 02:23:46;;;;;;;2.85;0.50;;;;;;;-2.68;69.03;100909.59;5098939;28;20055;-76
2022/12/07 02:26:45;;;;;;;1.05;0.40;;;;;;;-2.67;69.08;100916.47;5103957;28;20090;-76
2022/12/07 02:29:22;;;;;;;1.80;0.25;;;;;;;-2.67;69.07;100908.81;5098482;28;20392;-76
2022/12/07 02:31:57;;;;;;;0.82;0.30;;;;;;;-2.69;68.99;100905.31;5099076;28;20468;-77
2022/12/07 02:34:43;;;;;;;2.15;0.40;;;;;;;-2.65;69.10;100904.59;5106028;28;20093;-76
2022/12/07 02:37:18;;;;;;;1.23;0.38;;;;;;;-2.66;69.27;100900.31;5100960;28;20104;-77
2022/12/07 02:39:52;;;;;;;3.10;0.30;;;;;;;-2.64;69.01;100900.38;5103783;28;20051;-78
2022/12/07 02:42:25;;;;;;;5.03;1.27;;;;;;;-2.68;68.97;100889.13;5102833;28;20063;-76
2022/12/07 02:44:53;;;;;;;3.67;0.47;;;;;;;-2.64;68.96;100895.25;5102952;28;20043;-77
2022/12/07 02:47:22;;;;;;;2.33;0.30;;;;;;;-2.65;69.12;100886.69;5103545;28;20052;-77
2022/12/07 02:49:50;;;;;;;1.00;0.43;;;;;;;-2.63;69.16;100887.63;5101635;28;20051;-76
2022/12/07 02:52:17;;;;;;;3.80;0.30;;;;;;;-2.63;69.15;100881.66;5098620;28;20047;-76
2022/12/07 02:54:44;;;;;;;1.13;0.38;;;;;;;-2.62;69.31;100889.38;5097285;28;20097;-76
2022/12/07 02:57:23;;;;;;;1.95;0.60;;;;;;;-2.61;69.20;100886.00;5098614;28;20082;-76
2022/12/07 03:00:01;;;;;;;1.35;0.73;;;;;;;-2.60;69.45;100887.72;5102112;28;20101;-77
2022/12/07 03:02:37;;;;;;;2.47;0.40;;;;;;;-2.60;68.93;100876.63;5108593;28;20063;-76
2022/12/07 03:05:17;;;;;;;1.83;0.30;;;;;;;-2.59;68.86;100873.25;5109411;28;20093;-77
2022/12/07 03:07:53;;;;;;;3.80;0.38;;;;;;;-2.59;68.90;100871.59;5106085;28;20056;-77
2022/12/07 03:10:30;;;;;;;3.50;0.25;;;;;;;-2.58;69.29;100870.78;5106725;28;20048;-76
2022/12/07 03:13:06;;;;;;;2.95;0.30;;;;;;;-2.58;69.14;100873.31;5098390;28;20040;-70
2022/12/07 03:15:40;;;;;;;2.72;0.40;;;;;;;-2.58;69.14;100873.31;5096415;28;20632;-70
2022/12/07 03:18:10;;;;;;;1.40;0.35;;;;;;;-2.58;69.19;100867.34;5096691;28;20491;-70
2022/12/07 03:20:39;;;;;;;1.05;0.20;;;;;;;-2.59;69.11;100873.25;5103107;28;20046;-70
2022/12/07 03:23:09;;;;;;;2.38;0.40;;;;;;;-2.60;69.04;100874.94;5100970;28;20078;-70
2022/12/07 03:25:39;;;;;;;1.40;0.30;;;;;;;-2.59;69.04;100875.81;5101485;28;20062;-70
2022/12/07 03:28:08;;;;;;;1.33;0.30;;;;;;;-2.63;69.42;100864.63;5100982;28;20077;-70
2022/12/07 03:30:41;;;;;;;2.47;0.38;;;;;;;-2.60;69.01;100859.59;5101615;28;20052;-70
2022/12/07 03:33:13;;;;;;;1.73;0.30;;;;;;;-2.60;69.41;100862.16;5098349;28;20097;-70
2022/12/07 03:35:43;;;;;;;2.28;0.38;;;;;;;-2.60;69.19;100862.16;5101857;28;20044;-70
2022/12/07 03:38:19;;;;;;;3.45;0.32;;;;;;;-2.59;69.12;100858.81;5098976;28;20036;-70
2022/12/07 03:40:50;;;;;;;5.05;0.30;;;;;;;-2.69;69.27;100843.94;5099977;28;20155;-70
2022/12/07 03:43:19;;;;;;;1.70;0.40;;;;;;;-2.60;68.96;100859.59;5101663;28;20071;-74
2022/12/07 03:45:59;;;;;;;4.32;0.43;;;;;;;-2.59;69.40;100863.94;5100900;28;20496;-74
2022/12/07 03:48:32;;;;;;;0.88;0.30;;;;;;;-2.60;69.32;100861.28;5103393;28;20102;-75
2022/12/07 03:51:07;;;;;;;4.28;0.98;;;;;;;-2.60;69.33;100851.06;5100106;27;20048;-74
2022/12/07 03:53:40;;;;;;;2.47;0.38;;;;;;;-2.59;69.38;100855.34;5094780;28;20078;-74
2022/12/07 03:56:09;;;;;;;2.38;0.40;;;;;;;-2.61;69.45;100852.75;5101255;28;20052;-75
2022/12/07 03:58:36;;;;;;;3.08;0.30;;;;;;;-2.60;69.39;100841.69;5100464;28;20048;-74
2022/12/07 04:01:05;;;;;;;2.33;0.30;;;;;;;-2.60;69.32;100840.84;5100218;27;20109;-74
2022/12/07 04:03:31;;;;;;;1.58;0.20;;;;;;;-2.59;69.37;100848.59;5097681;27;20048;-74
2022/12/07 04:05:58;;;;;;;2.42;0.38;;;;;;;-2.60;69.22;100841.69;5101128;27;20044;-74
2022/12/07 04:08:26;;;;;;;2.20;0.30;;;;;;;-2.60;69.61;100840.84;5102298;28;20451;-73
2022/12/07 04:10:52;;;;;;;2.33;0.22;;;;;;;-2.59;70.04;100848.59;5103057;28;20055;-74
2022/12/07 04:13:19;;;;;;;1.80;0.22;;;;;;;-2.57;69.50;100844.38;5098219;28;20048;-75
2022/12/07 04:15:46;;;;;;;1.23;0.40;;;;;;;-2.57;69.60;100846.06;5099935;28;20580;-74
2022/12/07 04:18:14;;;;;;;4.95;0.40;;;;;;;-2.57;69.85;100831.59;5098952;28;20401;-74
2022/12/07 04:20:41;;;;;;;1.23;0.30;;;;;;;-2.55;69.54;100831.66;5099731;28;20097;-74
2022/12/07 04:23:07;;;;;;;3.30;0.30;;;;;;;-2.56;69.61;100835.91;5099769;28;20667;-74
2022/12/07 04:25:34;;;;;;;4.63;0.40;;;;;;;-2.57;69.57;100831.59;5102307;28;20093;-74
2022/12/07 04:28:01;;;;;;;0.50;0.20;;;;;;;-2.56;69.62;100837.56;5100030;28;20064;-74
2022/12/07 04:30:28;;;;;;;0.82;0.32;;;;;;;-2.58;69.51;100827.28;5101815;28;20040;-74
2022/12/07 04:32:54;;;;;;;4.43;1.10;;;;;;;-2.57;69.52;100826.47;5100055;28;20044;-74
2022/12/07 04:35:23;;;;;;;0.63;0.20;;;;;;;-2.57;69.62;100821.34;5099361;28;20052;-74
2022/12/07 04:37:49;;;;;;;1.00;0.17;;;;;;;-2.56;69.71;100823.13;5100436;28;20039;-74
2022/12/07 04:40:16;;;;;;;0.52;0.30;;;;;;;-2.55;69.46;100826.53;5099110;28;20039;-74
2022/12/07 04:42:43;;;;;;;2.08;0.25;;;;;;;-2.57;69.50;100816.25;5103158;27;20442;-74
2022/12/07 04:45:10;;;;;;;0.82;0.20;;;;;;;-2.56;69.50;100815.44;5101368;28;20056;-73
2022/12/07 04:47:37;;;;;;;3.13;0.25;;;;;;;-2.56;69.49;100812.88;5100950;27;20457;-75
2022/12/07 04:50:05;;;;;;;2.15;0.25;;;;;;;-2.61;69.81;100800.75;5100663;27;20537;-74
2022/12/07 04:52:33;;;;;;;3.90;0.30;;;;;;;-2.57;69.57;100810.25;5099454;27;20051;-74
2022/12/07 04:55:00;;;;;;;1.55;0.22;;;;;;;-2.57;69.35;100808.56;5100410;28;20104;-74
2022/12/07 04:57:27;;;;;;;3.90;0.40;;;;;;;-2.58;69.50;100799.16;5104292;28;20062;-74
2022/12/07 04:59:53;;;;;;;2.17;0.30;;;;;;;-2.56;69.49;100807.78;5097585;28;20048;-74
2022/12/07 05:02:20;;;;;;;0.90;0.60;;;;;;;-2.54;69.45;100810.38;5095756;28;20055;-74
2022/12/07 05:04:47;;;;;;;2.05;0.40;;;;;;;-2.64;69.52;100781.06;5098640;27;20040;-74
2022/12/07 05:07:14;;;;;;;4.72;0.85;;;;;;;-2.56;69.57;100794.97;5099965;28;20052;-74
2022/12/07 05:09:42;;;;;;;5.45;0.40;;;;;;;-2.56;69.64;100799.19;5102869;28;20097;-74
2022/12/07 05:12:08;;;;;;;2.78;1.15;;;;;;;-2.57;69.17;100790.66;5098076;28;20044;-73
2022/12/07 05:14:35;;;;;;;3.22;0.30;;;;;;;-2.58;69.40;100783.81;5097559;28;20047;-75
2022/12/07 05:17:02;;;;;;;1.90;0.30;;;;;;;-2.57;69.09;100790.66;5097016;28;20056;-74
2022/12/07 05:19:29;;;;;;;1.42;0.20;;;;;;;-2.57;69.49;100783.00;5098159;28;20088;-74
2022/12/07 05:21:55;;;;;;;0.30;0.20;;;;;;;-2.58;69.66;100782.97;5103633;27;20047;-73
2022/12/07 05:24:22;;;;;;;2.90;0.30;;;;;;;-2.57;69.46;100770.22;5095811;28;20101;-74
2022/12/07 05:26:51;;;;;;;1.42;0.30;;;;;;;-2.56;69.48;100771.06;5097158;28;20058;-74
2022/12/07 05:29:18;;;;;;;2.97;0.30;;;;;;;-2.57;69.37;100765.09;5096057;28;20496;-74
2022/12/07 05:31:45;;;;;;;4.32;0.40;;;;;;;-2.56;69.52;100766.84;5095124;28;20044;-74
2022/12/07 05:34:12;;;;;;;3.22;0.30;;;;;;;-2.57;69.51;100759.97;5094598;27;20068;-75
2022/12/07 05:36:39;;;;;;;2.72;0.28;;;;;;;-2.56;69.37;100760.84;5096625;28;20067;-74
2022/12/07 05:39:07;;;;;;;1.70;0.30;;;;;;;-2.69;69.51;100741.66;5096969;28;20059;-74
2022/12/07 05:44:19;;;;;;;4.78;0.22;;;;;;;-2.57;69.72;100754.00;5097372;28;20063;-74
2022/12/07 05:46:46;;;;;;;3.50;0.30;;;;;;;-2.58;69.41;100758.25;5097457;28;20499;-74
2022/12/07 05:49:13;;;;;;;1.95;0.40;;;;;;;-2.57;69.47;100764.22;5097242;28;20564;-74
2022/12/07 05:51:40;;;;;;;0.70;0.20;;;;;;;-2.58;69.56;100760.81;5098412;28;20051;-74
2022/12/07 05:54:06;;;;;;;5.00;0.50;;;;;;;-2.58;69.26;100747.16;5094539;28;20062;-73
2022/12/07 05:56:33;;;;;;;1.63;0.40;;;;;;;-2.57;69.51;100754.00;5096822;28;20051;-74
2022/12/07 06:01:45;;;;;;;1.13;0.22;;;;;;;-2.57;69.36;100754.00;5078234;28;20327;-74
2022/12/07 06:04:12;;;;;;;1.50;0.45;;;;;;;-2.57;69.77;100759.97;5095165;28;20135;-74
2022/12/07 06:06:39;;;;;;;1.55;0.28;;;;;;;-2.56;69.37;100764.28;5098160;28;20039;-74
2022/12/07 06:09:06;;;;;;;5.43;1.05;;;;;;;-2.56;69.64;100766.84;5097207;27;20040;-73
2022/12/07 06:14:17;;;;;;;2.63;0.30;;;;;;;-2.57;69.48;100759.97;5096244;28;20418;-74
2022/12/07 06:16:45;;;;;;;1.10;0.22;;;;;;;-2.58;69.55;100763.38;5098448;28;20075;-74
2022/12/07 06:19:12;;;;;;;0.63;0.20;;;;;;;-2.56;69.42;100769.41;5097816;27;20064;-74
2022/12/07 06:21:39;;;;;;;3.42;0.30;;;;;;;-2.56;69.40;100769.41;5096387;28;20457;-74
2022/12/07 06:24:06;;;;;;;1.85;0.30;;;;;;;-2.56;69.56;100771.97;5091400;28;20044;-74
2022/12/07 06:26:33;;;;;;;4.20;0.65;;;;;;;-2.65;69.39;100751.16;5095137;28;20044;-74
2022/12/07 06:29:00;;;;;;;1.27;0.20;;;;;;;-2.55;69.10;100778.81;5089193;28;20040;-74
2022/12/07 06:31:26;;;;;;;1.65;0.28;;;;;;;-2.56;69.40;100771.97;5095332;28;20047;-74
2022/12/07 06:33:59;;;;;;;2.40;0.30;;;;;;;-2.59;69.70;100769.31;5093381;28;20048;-74
2022/12/07 06:36:26;;;;;;;3.55;0.30;;;;;;;-2.55;69.54;100768.59;5092852;28;20048;-74
2022/12/07 06:38:53;;;;;;;3.20;1.20;;;;;;;-2.54;69.45;100775.41;5094656;27;20052;-75
2022/12/07 06:41:20;;;;;;;0.75;0.30;;;;;;;-2.54;69.50;100770.31;5085115;28;20040;-74
2022/12/07 06:43:47;;;;;;;1.58;0.30;;;;;;;-2.56;69.51;100769.41;5094596;28;20056;-73
2022/12/07 06:46:14;;;;;;;2.08;0.60;;;;;;;-2.54;69.38;100769.44;5096942;28;20400;-74
2022/12/07 06:48:41;;;;;;;0.88;0.45;;;;;;;-2.56;69.40;100766.84;5097091;28;20070;-74
2022/12/07 06:51:09;;;;;;;1.95;0.40;;;;;;;-2.56;69.53;100773.63;5098447;28;20448;-74
2022/12/07 06:53:37;;;;;;;2.83;0.95;;;;;;;-2.67;69.20;100747.72;5094595;28;20070;-73
2022/12/07 06:56:04;;;;;;;1.45;0.20;;;;;;;-2.57;69.36;100762.53;5099226;28;20052;-74
2022/12/07 06:58:31;;;;;;;1.35;0.40;;;;;;;-2.57;69.55;100772.75;5097170;28;20043;-74
2022/12/07 07:00:58;;;;;;;2.58;0.30;;;;;;;-2.62;69.33;100761.53;5094560;28;20126;-74
2022/12/07 07:03:24;;;;;;;1.10;0.45;;;;;;;-2.58;69.40;100765.91;5094978;28;20565;-74
2022/12/07 07:05:51;;;;;;;2.70;0.30;;;;;;;-2.57;69.50;100771.91;5096179;28;20051;-74
2022/12/07 07:08:19;;;;;;;0.45;0.25;;;;;;;-2.58;69.29;100781.25;5096115;28;20040;-73
2022/12/07 07:10:46;;;;;;;1.50;0.22;;;;;;;-2.60;69.18;100788.00;5091574;28;20100;-74
2022/12/07 07:13:13;;;;;;;3.60;0.60;;;;;;;-2.60;69.28;100787.13;5097394;28;20048;-74
2022/12/07 07:15:40;;;;;;;1.73;0.20;;;;;;;-2.61;69.21;100787.97;5093354;28;20042;-74
2022/12/07 07:18:06;;;;;;;2.42;0.40;;;;;;;-2.62;69.44;100792.22;5097303;28;20525;-73
2022/12/07 07:20:33;;;;;;;2.22;0.40;;;;;;;-2.62;69.36;100784.53;5096947;28;20077;-74
2022/12/07 07:23:00;;;;;;;0.93;0.30;;;;;;;-2.62;69.19;100789.66;5098994;28;20496;-75
2022/12/07 07:25:28;;;;;;;0.60;0.25;;;;;;;-2.65;69.30;100792.06;5098364;28;20052;-74
2022/12/07 07:27:55;;;;;;;2.00;0.30;;;;;;;-2.62;69.29;100787.09;5093271;28;20101;-73
2022/12/07 07:30:21;;;;;;;2.42;0.30;;;;;;;-2.63;69.38;100794.69;5094349;28;20036;-73
2022/12/07 07:32:48;;;;;;;3.08;0.30;;;;;;;-2.62;69.30;100796.44;5097115;28;20100;-74
2022/12/07 07:35:15;;;;;;;2.17;0.30;;;;;;;-2.62;69.18;100801.53;5096851;28;20044;-74
2022/12/07 07:37:42;;;;;;;2.05;0.38;;;;;;;-2.62;69.20;100796.44;5095961;28;20048;-75
2022/12/07 07:40:10;;;;;;;2.15;0.35;;;;;;;-2.63;69.02;100795.56;5098071;28;20039;-74
2022/12/07 07:42:38;;;;;;;1.25;0.30;;;;;;;-2.63;69.21;100792.16;5098548;28;20051;-74
2022/12/07 07:45:05;;;;;;;2.67;0.40;;;;;;;-2.65;69.51;100792.06;5098514;28;20509;-74
2022/12/07 07:47:32;;;;;;;1.15;0.40;;;;;;;-2.65;69.18;100797.19;5098247;28;20040;-75
2022/12/07 07:49:59;;;;;;;1.55;0.65;;;;;;;-2.66;69.32;100795.47;5102348;28;20044;-74
2022/12/07 07:52:26;;;;;;;3.40;0.43;;;;;;;-2.67;69.20;100788.63;5104238;27;20101;-74
2022/12/07 07:54:53;;;;;;;1.45;0.40;;;;;;;-2.67;69.07;100792.88;5099344;28;20048;-74
2022/12/07 07:57:20;;;;;;;4.40;0.40;;;;;;;-2.68;69.19;100794.53;5096864;28;20051;-74
2022/12/07 07:59:48;;;;;;;2.15;0.40;;;;;;;-2.68;69.19;100794.53;5097884;27;20048;-74
2022/12/07 08:02:16;;;;;;;2.25;0.30;;;;;;;-2.68;69.30;100796.22;5094233;28;20048;-74
2022/12/07 08:04:43;;;;;;;2.30;0.80;;;;;;;-2.74;69.11;100781.53;5101535;28;20477;-74
2022/12/07 08:07:10;;;;;;;3.97;0.50;;;;;;;-2.69;69.22;100789.38;5100726;28;20048;-74
2022/12/07 08:09:37;;;;;;;0.95;0.55;;;;;;;-2.69;69.11;100787.69;5104074;28;20100;-74
2022/12/07 08:12:05;;;;;;;2.60;0.55;;;;;;;-2.71;69.02;100787.63;5102037;28;20051;-74
2022/12/07 08:14:32;;;;;;;2.78;0.50;;;;;;;-2.71;69.33;100784.19;5100690;28;20074;-73
2022/12/07 08:17:00;;;;;;;2.10;0.30;;;;;;;-2.72;69.25;100780.78;5100136;28;20056;-74
2022/12/07 08:19:27;;;;;;;2.80;0.30;;;;;;;-2.73;69.41;100778.19;5098253;28;20105;-74
2022/12/07 08:21:55;;;;;;;0.82;0.30;;;;;;;-2.72;69.56;100769.69;5100074;27;20047;-74
2022/12/07 08:24:23;;;;;;;1.83;0.40;;;;;;;-2.74;69.73;100776.41;5096311;28;20040;-74
2022/12/07 08:26:50;;;;;;;3.22;0.40;;;;;;;-2.74;69.46;100771.31;5099280;28;20100;-74
2022/12/07 08:29:17;;;;;;;3.05;0.30;;;;;;;-2.79;69.64;100767.72;5100580;28;20080;-74
2022/12/07 08:31:43;;;;;;;1.40;0.30;;;;;;;-2.77;69.37;100766.09;5100513;28;20044;-74
2022/12/07 08:34:12;;;;;;;1.15;0.30;;;;;;;-2.72;69.46;100772.25;5101364;28;20117;-74
2022/12/07 08:36:40;;;;;;;1.80;0.40;;;;;;;-2.72;69.77;100770.53;5100260;28;20047;-74
2022/12/07 08:39:07;;;;;;;3.70;0.30;;;;;;;-2.71;69.85;100767.16;5097270;28;20044;-75
2022/12/07 08:41:33;;;;;;;0.50;0.20;;;;;;;-2.70;69.64;100762.94;5096001;28;20052;-75
2022/12/07 08:44:00;;;;;;;2.22;0.30;;;;;;;-2.70;69.49;100760.38;5099926;28;20475;-74
2022/12/07 08:46:33;;;;;;;0.65;0.30;;;;;;;-2.69;69.64;100753.59;5101098;28;20491;-73
2022/12/07 08:49:05;;;;;;;1.63;0.28;;;;;;;-2.66;69.72;100766.47;5096953;28;20134;-74
2022/12/07 08:51:33;;;;;;;1.05;0.30;;;;;;;-2.67;69.81;100763.06;5100113;28;20545;-73
2022/12/07 08:54:05;;;;;;;2.78;0.32;;;;;;;-2.66;69.85;100754.56;5094491;28;20109;-74
2022/12/07 08:56:32;;;;;;;0.88;0.20;;;;;;;-2.65;69.65;100752.84;5096634;28;20052;-73
2022/12/07 08:58:59;;;;;;;3.75;0.20;;;;;;;-2.63;69.90;100754.66;5096832;28;20052;-74
2022/12/07 09:01:26;;;;;;;1.65;0.30;;;;;;;-2.62;69.82;100751.31;5098651;28;20580;-74
2022/12/07 09:03:53;;;;;;;1.17;0.20;;;;;;;-2.60;69.81;100752.19;5102706;28;20044;-75
2022/12/07 09:06:20;;;;;;;1.17;0.30;;;;;;;-2.58;69.78;100749.72;5100360;28;20530;-74
2022/12/07 09:08:52;;;;;;;1.70;0.82;;;;;;;-2.58;69.93;100742.91;5097440;28;20055;-73
2022/12/07 09:11:19;;;;;;;0.63;0.20;;;;;;;-2.58;70.21;100744.59;5099299;28;20052;-73
2022/12/07 09:13:45;;;;;;;6.53;0.30;;;;;;;-2.55;69.69;100748.13;5098683;28;20052;-73
2022/12/07 09:16:12;;;;;;;3.67;0.28;;;;;;;-2.55;69.44;100730.22;5099987;28;20449;-75
2022/12/07 09:18:39;;;;;;;0.65;0.60;;;;;;;-2.52;69.91;100732.00;5096117;28;20112;-74
2022/12/07 09:21:06;;;;;;;12.73;0.75;;;;;;;-2.51;69.85;100733.75;5098216;28;20050;-73
2022/12/07 09:23:32;;;;;;;4.38;0.30;;;;;;;-2.52;70.10;100734.56;5097079;28;20060;-74
2022/12/07 09:26:02;;;;;;;1.42;0.30;;;;;;;-2.45;69.80;100738.19;5098614;28;20109;-73
2022/12/07 09:28:28;;;;;;;2.15;0.28;;;;;;;-2.43;70.01;100739.13;5095954;28;20423;-74
2022/12/07 09:30:55;;;;;;;1.98;0.50;;;;;;;-2.42;70.10;100739.19;5097327;27;20655;-73
2022/12/07 09:33:22;;;;;;;3.20;0.30;;;;;;;-2.40;69.73;100742.66;5097753;28;20056;-73
2022/12/07 09:35:50;;;;;;;0.52;0.20;;;;;;;-2.38;69.98;100737.59;5098141;28;20532;-74
2022/12/07 09:38:17;;;;;;;4.63;0.40;;;;;;;-2.35;70.01;100743.66;5098329;28;20542;-75
2022/12/07 09:40:44;;;;;;;2.92;0.25;;;;;;;-2.33;70.16;100736.94;5098110;28;20056;-74
2022/12/07 09:43:16;;;;;;;3.08;0.47;;;;;;;-2.31;70.02;100736.97;5100160;28;20471;-75
2022/12/07 09:45:45;;;;;;;1.58;0.20;;;;;;;-2.29;70.08;100737.88;5098489;28;20557;-71
2022/12/07 09:48:19;;;;;;;3.50;0.30;;;;;;;-2.25;70.01;100737.16;5099981;28;20036;-74
2022/12/07 09:50:47;;;;;;;2.95;0.30;;;;;;;-2.23;70.00;100732.97;5098575;28;20107;-75
2022/12/07 09:53:20;;;;;;;1.33;0.30;;;;;;;-2.24;69.88;100728.69;5095738;28;20047;-74
2022/12/07 09:55:47;;;;;;;4.53;0.95;;;;;;;-2.18;69.71;100733.13;5097179;28;20052;-74
2022/12/07 09:58:21;;;;;;;1.17;0.20;;;;;;;-2.22;69.92;100729.63;5096925;28;20055;-74
2022/12/07 10:00:48;;;;;;;0.60;0.20;;;;;;;-2.14;69.91;100735.81;5101265;28;20554;-74
2022/12/07 10:03:15;;;;;;;1.95;0.20;;;;;;;-2.10;69.91;100734.25;5097696;28;20048;-73
2022/12/07 10:05:45;;;;;;;0.43;0.10;;;;;;;-2.09;70.05;100734.28;5099973;28;20044;-73
2022/12/07 10:08:13;;;;;;;2.17;0.20;;;;;;;-2.08;70.23;100730.91;5099738;28;20048;-73
2022/12/07 10:10:41;;;;;;;2.63;0.30;;;;;;;-2.04;70.08;100732.75;5099212;28;20040;-73
2022/12/07 10:13:09;;;;;;;2.60;0.20;;;;;;;-2.03;69.98;100734.47;5100522;28;20078;-74
2022/12/07 10:15:49;;;;;;;2.78;0.22;;;;;;;-1.99;69.81;100724.31;5097424;28;20040;-75
2022/12/07 10:18:25;;;;;;;1.10;0.20;;;;;;;-2.00;69.79;100726.03;5098150;28;20047;-73
2022/12/07 10:21:02;;;;;;;1.17;0.22;;;;;;;-1.95;69.91;100727.03;5100157;28;20553;-74
2022/12/07 10:23:29;;;;;;;1.30;0.32;;;;;;;-1.94;69.75;100722.78;5099559;28;20130;-74
2022/12/07 10:25:56;;;;;;;1.58;0.30;;;;;;;-1.96;69.57;100709.97;5101157;28;20052;-74
2022/12/07 10:28:23;;;;;;;0.85;0.30;;;;;;;-1.90;69.89;100711.84;5097979;28;20040;-74
2022/12/07 10:30:57;;;;;;;2.83;0.30;;;;;;;-1.89;69.65;100713.56;5095380;28;20077;-75
2022/12/07 10:33:37;;;;;;;3.90;0.30;;;;;;;-1.87;69.91;100710.22;5095220;28;20121;-74
2022/12/07 10:36:19;;;;;;;0.60;0.20;;;;;;;-1.86;69.68;100703.41;5101065;28;20100;-74
2022/12/07 10:38:48;;;;;;;1.33;0.30;;;;;;;-1.85;69.52;100705.13;5097935;28;20148;-74
2022/12/07 10:41:15;;;;;;;0.90;0.57;;;;;;;-1.85;69.55;100703.47;5097991;28;20073;-74
2022/12/07 10:43:50;;;;;;;1.65;0.25;;;;;;;-1.82;69.69;100702.72;5101832;28;20039;-74
2022/12/07 10:46:52;;;;;;;0.40;0.20;;;;;;;-1.80;69.52;100693.34;5097904;28;20047;-74
2022/12/07 10:49:57;;;;;;;2.67;0.30;;;;;;;-1.79;69.90;100692.56;5099391;28;20048;-74
2022/12/07 10:52:39;;;;;;;1.88;0.60;;;;;;;-1.77;69.39;100690.03;5098521;28;20882;-74
2022/12/07 10:55:18;;;;;;;3.03;0.30;;;;;;;-1.81;69.66;100668.59;5098134;28;20044;-74
2022/12/07 10:57:57;;;;;;;0.70;0.20;;;;;;;-1.75;69.34;100679.00;5101450;28;20056;-75
2022/12/07 11:00:25;;;;;;;2.25;0.17;;;;;;;-1.74;69.71;100675.59;5096867;28;20065;-75
2022/12/07 11:03:24;;;;;;;0.40;0.20;;;;;;;-1.73;69.49;100672.25;5097648;28;20415;-74
2022/12/07 11:06:00;;;;;;;3.40;0.20;;;;;;;-1.73;69.36;100666.25;5096324;28;20056;-74
2022/12/07 11:08:44;;;;;;;2.25;0.20;;;;;;;-1.71;69.64;100660.34;5102947;28;20040;-73
2022/12/07 11:11:16;;;;;;;1.98;0.25;;;;;;;-1.70;69.14;100656.97;5097813;28;20068;-74
2022/12/07 11:13:53;;;;;;;0.80;0.17;;;;;;;-1.73;69.14;100656.88;5094428;28;20415;-73
2022/12/07 11:16:38;;;;;;;0.98;0.20;;;;;;;-1.68;69.13;100657.88;5095719;28;20101;-74
2022/12/07 11:19:18;;;;;;;;;;;;;;;-1.66;69.22;100657.91;5093726;28;20052;-75
2022/12/07 11:21:56;;;;;;;0.82;0.20;;;;;;;-1.66;69.71;100663.91;5102693;28;19931;-74
2022/12/07 11:24:31;;;;;;;2.92;0.20;;;;;;;-1.65;69.35;100650.28;5101807;28;20097;-74
2022/12/07 11:27:24;;;;;;;7.57;0.30;;;;;;;-1.65;69.15;100640.06;5102947;28;20059;-76
2022/12/07 11:30:03;;;;;;;1.58;0.20;;;;;;;-1.63;69.12;100643.50;5100741;28;20043;-74
2022/12/07 11:32:45;;;;;;;2.25;0.80;;;;;;;-1.62;69.33;100634.16;5105277;28;20044;-75
2022/12/07 11:35:23;;;;;;;1.00;0.25;;;;;;;-1.66;69.43;100625.50;5100438;28;20062;-74
2022/12/07 11:37:52;;;;;;;4.18;0.40;;;;;;;-1.62;69.19;100632.44;5105860;27;20127;-73
2022/12/07 11:40:27;;;;;;;2.30;0.20;;;;;;;-1.61;68.99;100628.19;5102260;28;20096;-74
2022/12/07 11:42:56;;;;;;;;;;;;;;;-1.61;68.82;100623.94;5102958;28;20043;-73
2022/12/07 11:45:27;;;;;;;2.28;0.30;;;;;;;-1.63;69.28;100624.72;5100486;28;19923;-74
2022/12/07 11:47:59;;;;;;;3.05;0.20;;;;;;;-1.61;69.00;100625.63;5103388;28;20044;-71